Time;durP1;ratioP1;P1;durP2;ratioP2;P2;SDS_P1;SDS_P2;PMS_P1;PMS_P2;Temp;Humidity;BMP_temperature;BMP_pressure;BME280_temperature;BME280_humidity;BME280_pressure;Samples;Min_cycle;Max_cycle;Signal;HPM_P1;HPM_P2
2022/03/08 00:04:54;;;;;;;38.92;17.85;;;;;;;;;;10351591;28;20245;-66
2022/03/08 00:09:58;;;;;;;43.38;17.83;;;;;;;;;;10310283;28;20105;-65
2022/03/08 00:15:00;;;;;;;41.50;17.88;;;;;;;;;;10311483;28;20043;-65
2022/03/08 00:20:05;;;;;;;40.92;17.40;;;;;;;;;;10316931;28;20043;-66
2022/03/08 00:25:13;;;;;;;35.33;18.00;;;;;;;;;;10347567;28;20284;-66
2022/03/08 00:30:16;;;;;;;39.72;17.52;;;;;;;;;;10332861;28;20057;-66
2022/03/08 00:35:19;;;;;;;42.53;17.08;;;;;;;;;;10352364;28;20349;-66
2022/03/08 00:40:25;;;;;;;40.78;19.88;;;;;;;;;;10356054;28;20286;-66
2022/03/08 00:45:27;;;;;;;38.53;21.05;;;;;;;;;;10327542;28;20062;-66
2022/03/08 00:50:31;;;;;;;43.42;22.40;;;;;;;;;;10310887;28;20042;-66
2022/03/08 00:55:35;;;;;;;39.30;21.48;;;;;;;;;;10314540;28;20042;-66
2022/03/08 01:00:40;;;;;;;48.20;21.43;;;;;;;;;;10314400;28;20050;-66
2022/03/08 01:05:42;;;;;;;37.85;20.77;;;;;;;;;;10314291;28;20062;-66
2022/03/08 01:10:46;;;;;;;37.60;19.25;;;;;;;;;;10328862;28;20050;-66
2022/03/08 01:15:48;;;;;;;40.08;19.23;;;;;;;;;;10309352;28;20082;-66
2022/03/08 01:20:51;;;;;;;38.65;18.85;;;;;;;;;;10315105;28;20092;-66
2022/03/08 01:25:56;;;;;;;39.53;19.23;;;;;;;;;;10348059;28;20128;-66
2022/03/08 01:30:58;;;;;;;39.88;18.50;;;;;;;;;;10345834;28;20039;-66
2022/03/08 01:36:01;;;;;;;38.28;18.23;;;;;;;;;;10311578;28;20071;-66
2022/03/08 01:41:05;;;;;;;41.03;20.02;;;;;;;;;;10327105;28;20042;-66
2022/03/08 01:46:07;;;;;;;41.95;20.60;;;;;;;;;;10337097;28;20231;-66
2022/03/08 01:51:10;;;;;;;48.42;24.10;;;;;;;;;;10314919;28;20085;-66
2022/03/08 01:56:14;;;;;;;45.20;24.60;;;;;;;;;;10313488;28;20050;-66
2022/03/08 02:01:17;;;;;;;51.03;25.70;;;;;;;;;;10324158;28;20070;-66
2022/03/08 02:06:19;;;;;;;48.90;25.00;;;;;;;;;;10314196;28;20057;-66
2022/03/08 02:11:23;;;;;;;50.70;24.98;;;;;;;;;;10309937;28;20055;-67
2022/03/08 02:16:25;;;;;;;51.28;25.60;;;;;;;;;;10274867;28;20042;-66
2022/03/08 02:21:34;;;;;;;48.33;22.63;;;;;;;;;;10303263;28;20050;-65
2022/03/08 02:26:37;;;;;;;43.30;21.50;;;;;;;;;;10325066;28;20345;-65
2022/03/08 02:31:40;;;;;;;42.08;20.33;;;;;;;;;;10338418;28;20050;-66
2022/03/08 02:36:57;;;;;;;46.20;20.77;;;;;;;;;;10351471;28;20062;-66
2022/03/08 02:42:00;;;;;;;47.85;20.77;;;;;;;;;;10358735;28;20286;-66
2022/03/08 02:47:04;;;;;;;43.95;22.65;;;;;;;;;;10299135;28;20031;-67
2022/03/08 02:52:08;;;;;;;50.05;25.02;;;;;;;;;;10301946;28;20368;-65
2022/03/08 02:57:10;;;;;;;45.30;22.60;;;;;;;;;;10323301;28;20042;-65
2022/03/08 03:02:13;;;;;;;45.05;22.95;;;;;;;;;;10340573;28;20064;-66
2022/03/08 03:07:16;;;;;;;45.20;22.80;;;;;;;;;;10321102;28;20043;-66
2022/03/08 03:12:19;;;;;;;57.35;25.45;;;;;;;;;;10310815;28;20050;-66
2022/03/08 03:17:22;;;;;;;52.80;24.75;;;;;;;;;;10309773;28;20058;-66
2022/03/08 03:22:26;;;;;;;50.17;24.00;;;;;;;;;;10299436;28;20246;-66
2022/03/08 03:27:29;;;;;;;51.40;23.80;;;;;;;;;;10305655;28;20034;-67
2022/03/08 03:32:34;;;;;;;45.20;21.40;;;;;;;;;;10302235;28;20081;-65
2022/03/08 03:37:39;;;;;;;52.58;23.17;;;;;;;;;;10308778;28;20058;-66
2022/03/08 03:42:41;;;;;;;48.00;25.02;;;;;;;;;;10305038;28;20262;-66
2022/03/08 03:47:44;;;;;;;55.15;26.63;;;;;;;;;;10343542;28;20269;-66
2022/03/08 03:52:47;;;;;;;60.70;27.02;;;;;;;;;;10330936;28;20059;-66
2022/03/08 03:57:50;;;;;;;39.58;21.92;;;;;;;;;;10347552;28;20057;-66
2022/03/08 04:02:52;;;;;;;47.85;23.33;;;;;;;;;;10327479;28;20042;-66
2022/03/08 04:07:55;;;;;;;46.75;23.02;;;;;;;;;;10315920;28;20055;-66
2022/03/08 04:12:58;;;;;;;60.25;25.38;;;;;;;;;;10346035;28;20046;-66
2022/03/08 04:18:00;;;;;;;53.08;25.23;;;;;;;;;;10328313;28;20043;-66
2022/03/08 04:23:04;;;;;;;52.10;25.27;;;;;;;;;;10304291;28;20389;-66
2022/03/08 04:28:07;;;;;;;52.08;24.58;;;;;;;;;;10316298;28;20050;-66
2022/03/08 04:33:10;;;;;;;46.10;22.63;;;;;;;;;;10334424;28;20238;-66
2022/03/08 04:38:14;;;;;;;47.50;22.85;;;;;;;;;;10315101;28;20358;-66
2022/03/08 04:43:17;;;;;;;48.35;22.67;;;;;;;;;;10314521;28;20042;-66
2022/03/08 04:48:19;;;;;;;55.10;23.98;;;;;;;;;;10299799;28;20051;-66
2022/03/08 04:53:23;;;;;;;47.88;23.58;;;;;;;;;;10327155;28;20092;-66
2022/03/08 04:58:25;;;;;;;46.97;25.50;;;;;;;;;;10327020;28;20042;-65
2022/03/08 05:03:27;;;;;;;43.63;23.30;;;;;;;;;;10317445;28;20054;-66
2022/03/08 05:08:31;;;;;;;49.58;23.42;;;;;;;;;;10338657;28;20345;-66
2022/03/08 05:13:33;;;;;;;43.78;21.67;;;;;;;;;;10329263;28;20050;-66
2022/03/08 05:18:36;;;;;;;38.53;21.92;;;;;;;;;;10304542;28;20159;-66
2022/03/08 05:23:40;;;;;;;42.70;21.63;;;;;;;;;;10337418;28;20085;-67
2022/03/08 05:28:43;;;;;;;40.65;20.85;;;;;;;;;;10352944;28;20062;-66
2022/03/08 05:33:45;;;;;;;40.00;19.63;;;;;;;;;;10311274;28;20058;-67
2022/03/08 05:38:50;;;;;;;34.95;18.05;;;;;;;;;;10347262;28;20065;-65
2022/03/08 05:43:52;;;;;;;34.97;18.25;;;;;;;;;;10350937;28;20058;-66
2022/03/08 05:48:54;;;;;;;35.17;17.75;;;;;;;;;;10338542;28;20276;-67
2022/03/08 05:53:58;;;;;;;47.65;19.83;;;;;;;;;;10354773;28;20110;-65
2022/03/08 05:59:01;;;;;;;51.40;26.38;;;;;;;;;;10338446;28;20098;-66
2022/03/08 06:04:03;;;;;;;40.40;21.92;;;;;;;;;;10312809;28;20055;-66
2022/03/08 06:09:07;;;;;;;47.90;21.55;;;;;;;;;;10312502;28;20047;-66
2022/03/08 06:14:09;;;;;;;35.60;18.45;;;;;;;;;;10290369;28;20054;-65
2022/03/08 06:19:11;;;;;;;44.15;19.85;;;;;;;;;;10294608;28;20227;-68
2022/03/08 06:24:15;;;;;;;33.92;17.10;;;;;;;;;;10297035;28;20228;-68
2022/03/08 06:29:18;;;;;;;22.75;13.60;;;;;;;;;;10347175;28;20142;-66
2022/03/08 06:34:20;;;;;;;25.80;14.45;;;;;;;;;;10284771;28;20051;-66
2022/03/08 06:39:24;;;;;;;30.65;17.15;;;;;;;;;;10351991;28;20053;-66
2022/03/08 06:44:26;;;;;;;23.55;14.27;;;;;;;;;;10297388;28;20078;-66
2022/03/08 06:49:28;;;;;;;19.83;11.52;;;;;;;;;;10284243;28;20051;-66
2022/03/08 06:54:32;;;;;;;21.50;12.40;;;;;;;;;;10299354;28;20346;-66
2022/03/08 06:59:35;;;;;;;31.52;14.10;;;;;;;;;;10325248;28;20054;-66
2022/03/08 07:04:37;;;;;;;21.20;13.27;;;;;;;;;;10350638;28;20061;-68
2022/03/08 07:09:41;;;;;;;17.58;9.85;;;;;;;;;;10320338;28;20047;-67
2022/03/08 07:14:43;;;;;;;23.15;14.75;;;;;;;;;;10314704;28;20046;-67
2022/03/08 07:19:46;;;;;;;19.50;11.13;;;;;;;;;;10327099;28;20049;-67
2022/03/08 07:24:50;;;;;;;17.95;10.70;;;;;;;;;;10306779;28;20384;-66
2022/03/08 07:29:52;;;;;;;16.95;13.15;;;;;;;;;;10290023;28;20050;-67
2022/03/08 07:34:55;;;;;;;15.70;10.13;;;;;;;;;;10338851;28;20101;-67
2022/03/08 07:39:58;;;;;;;14.60;9.18;;;;;;;;;;10309280;28;20054;-68
2022/03/08 07:45:00;;;;;;;15.48;8.50;;;;;;;;;;10343294;28;20211;-68
2022/03/08 07:50:03;;;;;;;12.27;7.05;;;;;;;;;;10312805;28;20082;-66
2022/03/08 07:55:09;;;;;;;10.98;6.80;;;;;;;;;;10337887;28;20117;-67
2022/03/08 08:00:12;;;;;;;9.95;7.38;;;;;;;;;;10358551;28;20042;-67
2022/03/08 08:05:14;;;;;;;8.77;6.43;;;;;;;;;;10316747;28;20413;-68
2022/03/08 08:10:18;;;;;;;8.35;5.05;;;;;;;;;;10325938;28;20055;-68
2022/03/08 08:15:20;;;;;;;9.38;3.75;;;;;;;;;;10308541;28;20047;-67
2022/03/08 08:20:22;;;;;;;5.57;3.78;;;;;;;;;;10308499;28;20123;-67
2022/03/08 08:25:27;;;;;;;8.73;3.85;;;;;;;;;;10309290;28;20047;-67
2022/03/08 08:30:29;;;;;;;6.78;3.58;;;;;;;;;;10321689;28;20192;-67
2022/03/08 08:35:32;;;;;;;5.50;3.10;;;;;;;;;;10341626;28;20066;-67
2022/03/08 08:40:36;;;;;;;4.70;3.03;;;;;;;;;;10319929;28;20338;-67
2022/03/08 08:45:38;;;;;;;5.85;3.55;;;;;;;;;;10344877;28;20071;-68
2022/03/08 08:50:41;;;;;;;5.15;3.55;;;;;;;;;;10324784;28;20050;-68
2022/03/08 08:55:45;;;;;;;1.98;1.65;;;;;;;;;;10347845;28;20050;-66
2022/03/08 09:00:47;;;;;;;3.97;1.67;;;;;;;;;;10328795;28;20046;-66
2022/03/08 09:05:49;;;;;;;;;;;;;;;;;;10318654;28;20326;-67
2022/03/08 09:10:54;;;;;;;2.40;1.98;;;;;;;;;;10315365;28;19926;-67
2022/03/08 09:15:56;;;;;;;4.82;2.58;;;;;;;;;;10319677;28;20038;-70
2022/03/08 09:20:59;;;;;;;5.20;2.60;;;;;;;;;;10317149;28;20291;-72
2022/03/08 09:26:03;;;;;;;6.63;4.07;;;;;;;;;;10314692;28;20223;-69
2022/03/08 09:31:05;;;;;;;5.57;3.00;;;;;;;;;;10314648;28;20190;-67
2022/03/08 09:36:08;;;;;;;8.25;3.85;;;;;;;;;;10306822;28;20058;-68
2022/03/08 09:41:13;;;;;;;10.05;4.28;;;;;;;;;;10292853;28;20086;-68
2022/03/08 09:46:16;;;;;;;17.95;8.40;;;;;;;;;;10308913;28;20059;-69
2022/03/08 09:51:18;;;;;;;17.38;9.90;;;;;;;;;;10284510;28;20050;-68
2022/03/08 09:56:22;;;;;;;22.20;9.48;;;;;;;;;;10320576;28;20062;-70
2022/03/08 10:01:24;;;;;;;19.17;10.60;;;;;;;;;;10317052;28;20073;-69
2022/03/08 10:06:39;;;;;;;23.40;12.02;;;;;;;;;;10311028;28;20046;-68
2022/03/08 10:11:43;;;;;;;21.60;12.23;;;;;;;;;;10325242;28;20055;-67
2022/03/08 10:16:49;;;;;;;21.27;12.30;;;;;;;;;;10311627;28;20055;-69
2022/03/08 10:21:54;;;;;;;12.05;7.75;;;;;;;;;;10309721;28;20046;-68
2022/03/08 10:27:00;;;;;;;11.63;6.65;;;;;;;;;;10298052;28;20043;-68
2022/03/08 10:32:07;;;;;;;14.93;6.35;;;;;;;;;;10296589;28;20328;-68
2022/03/08 10:37:13;;;;;;;13.25;6.15;;;;;;;;;;10310817;28;20054;-68
2022/03/08 10:42:21;;;;;;;12.52;6.90;;;;;;;;;;10322211;28;20050;-67
2022/03/08 10:47:24;;;;;;;17.30;7.63;;;;;;;;;;10323655;28;20356;-67
2022/03/08 10:52:28;;;;;;;16.75;5.90;;;;;;;;;;10307484;28;20354;-68
2022/03/08 10:57:35;;;;;;;14.77;7.43;;;;;;;;;;10300958;28;20333;-68
2022/03/08 11:02:49;;;;;;;23.10;12.73;;;;;;;;;;10346129;28;20334;-67
2022/03/08 11:07:52;;;;;;;16.88;7.43;;;;;;;;;;10311032;28;20373;-68
2022/03/08 11:12:57;;;;;;;10.55;5.72;;;;;;;;;;10286192;28;20327;-68
2022/03/08 11:18:01;;;;;;;10.40;5.17;;;;;;;;;;10309643;28;20050;-68
2022/03/08 11:23:05;;;;;;;13.30;6.95;;;;;;;;;;10310573;28;20097;-67
2022/03/08 11:28:09;;;;;;;20.20;8.70;;;;;;;;;;10310896;28;20049;-69
2022/03/08 11:33:17;;;;;;;12.80;5.68;;;;;;;;;;10314852;28;20097;-68
2022/03/08 11:38:19;;;;;;;16.00;8.20;;;;;;;;;;10333278;28;20059;-69
2022/03/08 11:43:37;;;;;;;14.55;5.63;;;;;;;;;;10294052;28;20238;-66
2022/03/08 11:48:51;;;;;;;6.90;5.05;;;;;;;;;;10323305;28;20049;-68
2022/03/08 11:54:07;;;;;;;9.93;4.70;;;;;;;;;;10316522;28;20046;-68
2022/03/08 11:59:11;;;;;;;11.88;7.03;;;;;;;;;;10323091;28;20035;-68
2022/03/08 12:04:16;;;;;;;12.45;6.00;;;;;;;;;;10289982;28;20405;-68
2022/03/08 12:09:19;;;;;;;19.15;7.15;;;;;;;;;;10353071;28;20250;-68
2022/03/08 12:14:26;;;;;;;12.18;6.20;;;;;;;;;;10349817;28;20047;-68
2022/03/08 12:19:33;;;;;;;10.98;6.15;;;;;;;;;;10330357;28;20050;-67
2022/03/08 12:24:40;;;;;;;10.55;6.00;;;;;;;;;;10351942;28;20054;-68
2022/03/08 12:29:55;;;;;;;10.32;5.60;;;;;;;;;;10334086;28;20094;-68
2022/03/08 12:35:14;;;;;;;15.18;6.57;;;;;;;;;;10351994;28;20331;-68
2022/03/08 12:40:27;;;;;;;9.55;5.30;;;;;;;;;;10355137;28;20127;-70
2022/03/08 12:45:32;;;;;;;11.60;6.82;;;;;;;;;;10309924;28;20118;-71
2022/03/08 12:50:36;;;;;;;;;;;;;;;;;;10315905;28;20043;-68
2022/03/08 12:55:39;;;;;;;8.38;5.57;;;;;;;;;;10320194;28;20221;-68
2022/03/08 13:00:45;;;;;;;10.93;6.53;;;;;;;;;;10285704;28;20066;-70
2022/03/08 13:05:51;;;;;;;8.73;6.00;;;;;;;;;;10308999;28;20047;-68
2022/03/08 13:10:55;;;;;;;9.45;4.90;;;;;;;;;;10321031;28;20097;-71
2022/03/08 13:15:58;;;;;;;10.15;5.47;;;;;;;;;;10354646;28;20061;-71
2022/03/08 13:21:01;;;;;;;14.27;7.72;;;;;;;;;;10307750;28;20053;-72
2022/03/08 13:26:05;;;;;;;9.68;5.80;;;;;;;;;;10315209;28;20345;-69
2022/03/08 13:31:12;;;;;;;11.75;7.30;;;;;;;;;;10288549;28;20401;-70
2022/03/08 13:36:16;;;;;;;8.88;5.85;;;;;;;;;;10274660;29;20065;-70
2022/03/08 13:41:21;;;;;;;6.30;4.40;;;;;;;;;;10302331;28;20058;-70
2022/03/08 13:46:26;;;;;;;5.70;4.00;;;;;;;;;;10277047;28;20047;-67
2022/03/08 13:51:31;;;;;;;9.38;3.45;;;;;;;;;;10286909;28;20051;-69
2022/03/08 13:56:42;;;;;;;6.03;3.47;;;;;;;;;;10273740;28;20055;-67
2022/03/08 14:01:59;;;;;;;5.20;3.85;;;;;;;;;;10287438;28;20124;-67
2022/03/08 14:07:01;;;;;;;11.38;5.25;;;;;;;;;;10324076;28;20094;-69
2022/03/08 14:12:06;;;;;;;34.85;10.52;;;;;;;;;;10312741;28;20054;-68
2022/03/08 14:17:09;;;;;;;4.93;3.47;;;;;;;;;;10308365;28;20038;-68
2022/03/08 14:22:12;;;;;;;8.20;3.70;;;;;;;;;;10273377;28;20039;-68
2022/03/08 14:27:15;;;;;;;4.35;3.15;;;;;;;;;;10272527;28;20054;-68
2022/03/08 14:32:18;;;;;;;5.20;3.30;;;;;;;;;;10273112;28;20195;-67
2022/03/08 14:37:21;;;;;;;7.28;3.30;;;;;;;;;;10295354;28;20070;-68
2022/03/08 14:42:25;;;;;;;2.97;1.33;;;;;;;;;;10313877;28;20238;-68
2022/03/08 14:47:30;;;;;;;2.95;1.90;;;;;;;;;;10306626;28;20047;-69
2022/03/08 14:52:34;;;;;;;2.72;1.90;;;;;;;;;;10294377;28;20051;-68
2022/03/08 14:57:37;;;;;;;2.13;1.60;;;;;;;;;;10312506;28;20046;-68
2022/03/08 15:02:45;;;;;;;12.20;1.98;;;;;;;;;;10303680;28;20094;-69
2022/03/08 15:07:48;;;;;;;4.55;3.13;;;;;;;;;;10292535;28;20054;-68
2022/03/08 15:12:51;;;;;;;3.67;2.20;;;;;;;;;;10312510;28;20051;-68
2022/03/08 15:17:54;;;;;;;5.50;2.95;;;;;;;;;;10299862;28;20077;-68
2022/03/08 15:22:57;;;;;;;6.75;2.03;;;;;;;;;;10310867;28;20045;-67
2022/03/08 15:27:59;;;;;;;7.75;2.20;;;;;;;;;;10312801;28;20215;-68
2022/03/08 15:33:03;;;;;;;5.10;3.13;;;;;;;;;;10312017;28;20086;-68
2022/03/08 15:38:06;;;;;;;13.93;4.93;;;;;;;;;;10310486;28;20170;-69
2022/03/08 15:43:09;;;;;;;11.60;4.47;;;;;;;;;;10309189;28;20050;-68
2022/03/08 15:48:13;;;;;;;7.55;4.30;;;;;;;;;;10322375;28;20310;-68
2022/03/08 15:53:15;;;;;;;11.82;3.75;;;;;;;;;;10320772;28;20043;-73
2022/03/08 15:58:18;;;;;;;6.18;3.42;;;;;;;;;;10293421;28;20219;-68
2022/03/08 16:03:22;;;;;;;7.40;4.93;;;;;;;;;;10335995;28;20246;-68
2022/03/08 16:08:26;;;;;;;9.00;4.78;;;;;;;;;;10315971;28;20081;-66
2022/03/08 16:13:29;;;;;;;7.70;4.82;;;;;;;;;;10326320;28;20047;-68
2022/03/08 16:18:32;;;;;;;8.85;5.35;;;;;;;;;;10328157;28;20230;-68
2022/03/08 16:23:35;;;;;;;9.48;5.05;;;;;;;;;;10297821;28;20071;-68
2022/03/08 16:28:37;;;;;;;11.18;5.63;;;;;;;;;;10279311;28;20051;-68
2022/03/08 16:33:41;;;;;;;15.82;7.07;;;;;;;;;;10290586;28;20101;-68
2022/03/08 16:38:44;;;;;;;42.50;16.88;;;;;;;;;;10318765;28;20062;-68
2022/03/08 16:43:46;;;;;;;66.00;20.73;;;;;;;;;;10301241;28;20250;-68
2022/03/08 16:48:50;;;;;;;33.72;14.00;;;;;;;;;;10289504;28;20043;-68
2022/03/08 16:53:53;;;;;;;27.33;8.57;;;;;;;;;;10317516;28;20039;-66
2022/03/08 16:59:00;;;;;;;74.30;23.95;;;;;;;;;;10278269;28;20050;-67
2022/03/08 17:04:04;;;;;;;32.67;12.45;;;;;;;;;;10291260;28;20300;-68
2022/03/08 17:09:06;;;;;;;18.70;10.05;;;;;;;;;;10278606;28;20050;-67
2022/03/08 17:14:08;;;;;;;33.78;14.75;;;;;;;;;;10291449;28;20043;-68
2022/03/08 17:19:13;;;;;;;33.95;14.10;;;;;;;;;;10315713;28;20078;-68
2022/03/08 17:24:16;;;;;;;58.40;21.55;;;;;;;;;;10285302;28;20047;-68
2022/03/08 17:29:18;;;;;;;46.65;18.58;;;;;;;;;;10281897;28;20055;-68
2022/03/08 17:34:21;;;;;;;27.63;10.85;;;;;;;;;;10276571;29;20114;-67
2022/03/08 17:39:25;;;;;;;40.65;16.08;;;;;;;;;;10276491;29;20347;-68
2022/03/08 17:44:28;;;;;;;36.10;15.15;;;;;;;;;;10287223;28;20046;-67
2022/03/08 17:49:31;;;;;;;41.67;14.57;;;;;;;;;;10315121;28;20051;-68
2022/03/08 17:54:34;;;;;;;31.92;13.57;;;;;;;;;;10314537;28;20322;-68
2022/03/08 17:59:36;;;;;;;33.45;14.65;;;;;;;;;;10293132;28;20047;-68
2022/03/08 18:04:40;;;;;;;43.85;20.63;;;;;;;;;;10284806;28;20046;-68
2022/03/08 18:09:43;;;;;;;54.38;24.15;;;;;;;;;;10316434;28;20043;-67
2022/03/08 18:14:46;;;;;;;31.80;14.10;;;;;;;;;;10315680;28;20321;-68
2022/03/08 18:19:49;;;;;;;40.00;15.13;;;;;;;;;;10301063;28;20065;-67
2022/03/08 18:24:53;;;;;;;38.40;14.73;;;;;;;;;;10315055;28;20062;-69
2022/03/08 18:29:55;;;;;;;42.10;17.17;;;;;;;;;;10312626;28;20047;-68
2022/03/08 18:34:59;;;;;;;41.78;17.98;;;;;;;;;;10323645;28;20304;-67
2022/03/08 18:40:03;;;;;;;46.60;18.48;;;;;;;;;;10327166;28;20317;-68
2022/03/08 18:45:07;;;;;;;36.95;16.25;;;;;;;;;;10311621;28;20054;-68
2022/03/08 18:50:11;;;;;;;37.70;15.95;;;;;;;;;;10312090;28;20097;-68
2022/03/08 18:55:14;;;;;;;38.45;15.30;;;;;;;;;;10293000;28;20046;-68
2022/03/08 19:00:18;;;;;;;32.85;14.20;;;;;;;;;;10297903;28;20063;-67
2022/03/08 19:05:22;;;;;;;34.10;15.43;;;;;;;;;;10312011;28;20075;-67
2022/03/08 19:10:24;;;;;;;42.42;18.90;;;;;;;;;;10311672;28;20341;-68
2022/03/08 19:15:27;;;;;;;61.53;21.98;;;;;;;;;;10311097;28;20274;-67
2022/03/08 19:20:31;;;;;;;57.08;20.80;;;;;;;;;;10310431;28;20062;-68
2022/03/08 19:25:34;;;;;;;61.85;21.33;;;;;;;;;;10311101;28;20353;-68
2022/03/08 19:30:36;;;;;;;60.33;23.15;;;;;;;;;;10290224;28;20098;-67
2022/03/08 19:35:41;;;;;;;48.05;19.17;;;;;;;;;;10291587;28;20372;-69
2022/03/08 19:40:43;;;;;;;40.50;17.58;;;;;;;;;;10308575;28;20046;-68
2022/03/08 19:45:46;;;;;;;64.30;22.10;;;;;;;;;;10308198;28;20043;-67
2022/03/08 19:50:49;;;;;;;72.75;25.02;;;;;;;;;;10309141;28;20261;-68
2022/03/08 19:55:52;;;;;;;56.40;20.05;;;;;;;;;;10309789;28;20057;-67
2022/03/08 20:00:55;;;;;;;41.97;14.32;;;;;;;;;;10310569;28;20046;-67
2022/03/08 20:05:58;;;;;;;31.48;12.13;;;;;;;;;;10305339;28;20102;-68
2022/03/08 20:11:01;;;;;;;24.67;11.50;;;;;;;;;;10270145;28;20342;-67
2022/03/08 20:16:03;;;;;;;29.05;11.43;;;;;;;;;;10270909;28;20066;-68
2022/03/08 20:21:08;;;;;;;39.30;12.52;;;;;;;;;;10298627;28;20043;-67
2022/03/08 20:26:10;;;;;;;35.47;13.32;;;;;;;;;;10298018;28;20047;-68
2022/03/08 20:31:13;;;;;;;38.95;13.48;;;;;;;;;;10293657;28;20347;-67
2022/03/08 20:36:17;;;;;;;34.97;13.45;;;;;;;;;;10320928;28;20278;-68
2022/03/08 20:41:19;;;;;;;29.73;11.93;;;;;;;;;;10308349;28;20338;-67
2022/03/08 20:46:21;;;;;;;32.33;11.82;;;;;;;;;;10316433;28;20330;-68
2022/03/08 20:51:25;;;;;;;27.52;11.60;;;;;;;;;;10316107;28;20054;-68
2022/03/08 20:56:27;;;;;;;29.15;11.57;;;;;;;;;;10316104;28;20047;-67
2022/03/08 21:01:30;;;;;;;27.20;11.52;;;;;;;;;;10315171;28;20085;-67
2022/03/08 21:06:34;;;;;;;40.90;15.88;;;;;;;;;;10313595;28;20109;-68
2022/03/08 21:11:37;;;;;;;36.17;14.20;;;;;;;;;;10315172;28;20046;-68
2022/03/08 21:16:39;;;;;;;36.72;16.52;;;;;;;;;;10316207;28;20038;-68
2022/03/08 21:21:44;;;;;;;43.80;17.00;;;;;;;;;;10302743;28;20086;-68
2022/03/08 21:26:46;;;;;;;45.38;17.10;;;;;;;;;;10293214;28;20062;-68
2022/03/08 21:31:49;;;;;;;38.35;15.85;;;;;;;;;;10314497;28;20356;-68
2022/03/08 21:36:53;;;;;;;43.83;16.63;;;;;;;;;;10315031;28;20066;-67
2022/03/08 21:41:56;;;;;;;47.10;19.08;;;;;;;;;;10313632;28;20093;-68
2022/03/08 21:46:58;;;;;;;50.65;20.98;;;;;;;;;;10313608;28;20281;-67
2022/03/08 21:52:02;;;;;;;65.88;25.50;;;;;;;;;;10330885;28;20068;-67
2022/03/08 21:57:04;;;;;;;68.57;26.23;;;;;;;;;;10335621;28;20385;-68
2022/03/08 22:02:07;;;;;;;77.63;29.33;;;;;;;;;;10315443;28;20154;-66
2022/03/08 22:07:11;;;;;;;79.97;31.45;;;;;;;;;;10295266;28;20043;-67
2022/03/08 22:12:13;;;;;;;77.15;29.25;;;;;;;;;;10300727;28;20042;-68
2022/03/08 22:17:15;;;;;;;89.38;32.95;;;;;;;;;;10315610;28;20057;-67
2022/03/08 22:22:20;;;;;;;81.95;31.05;;;;;;;;;;10311887;28;20094;-66
2022/03/08 22:27:23;;;;;;;98.78;37.83;;;;;;;;;;10298342;28;20042;-68
2022/03/08 22:32:26;;;;;;;91.90;35.10;;;;;;;;;;10309514;28;20106;-68
2022/03/08 22:37:30;;;;;;;126.88;44.00;;;;;;;;;;10322002;28;20058;-68
2022/03/08 22:42:33;;;;;;;85.95;33.05;;;;;;;;;;10312327;28;20043;-68
2022/03/08 22:47:35;;;;;;;87.38;33.35;;;;;;;;;;10311570;28;20242;-67
2022/03/08 22:52:39;;;;;;;114.68;42.10;;;;;;;;;;10275292;28;20318;-66
2022/03/08 22:57:41;;;;;;;86.80;38.25;;;;;;;;;;10334042;28;20297;-66
2022/03/08 23:02:44;;;;;;;74.68;32.75;;;;;;;;;;10330686;28;20043;-67
2022/03/08 23:07:47;;;;;;;69.22;28.88;;;;;;;;;;10278320;28;20046;-68
2022/03/08 23:12:50;;;;;;;81.88;27.85;;;;;;;;;;10311534;28;20317;-67
2022/03/08 23:17:52;;;;;;;53.90;22.75;;;;;;;;;;10313228;28;20223;-67
2022/03/08 23:22:56;;;;;;;48.72;22.52;;;;;;;;;;10333865;28;20053;-67
2022/03/08 23:27:59;;;;;;;53.35;24.83;;;;;;;;;;10311541;28;20249;-67
2022/03/08 23:33:01;;;;;;;46.53;22.20;;;;;;;;;;10309571;28;20067;-67
2022/03/08 23:38:05;;;;;;;47.42;22.08;;;;;;;;;;10301307;28;20082;-66
2022/03/08 23:43:07;;;;;;;43.25;20.55;;;;;;;;;;10290954;28;20054;-66
2022/03/08 23:48:10;;;;;;;41.92;20.20;;;;;;;;;;10329894;28;20046;-66
2022/03/08 23:53:13;;;;;;;43.92;19.35;;;;;;;;;;10327293;28;20050;-67
2022/03/08 23:58:18;;;;;;;51.00;20.27;;;;;;;;;;10325394;28;20391;-67
